createdAt,value
2019-02-06T00:01:31.145Z,15.13
2019-02-06T00:03:59.752Z,10.60
2019-02-06T00:06:28.382Z,13.15
2019-02-06T00:08:56.991Z,12.23
2019-02-06T00:11:25.766Z,13.88
2019-02-06T00:13:54.911Z,11.38
2019-02-06T00:16:23.534Z,15.72
2019-02-06T00:18:52.069Z,10.70
2019-02-06T00:21:20.859Z,14.23
2019-02-06T00:23:49.469Z,11.38
2019-02-06T00:26:18.098Z,14.83
2019-02-06T00:28:46.678Z,13.20
2019-02-06T00:31:15.215Z,12.70
2019-02-06T00:33:44.105Z,12.20
2019-02-06T00:36:12.651Z,12.37
2019-02-06T00:38:41.617Z,12.50
2019-02-06T00:41:10.536Z,10.65
2019-02-06T00:43:39.273Z,10.80
2019-02-06T00:46:08.192Z,6.90
2019-02-06T00:48:36.747Z,8.70
2019-02-06T00:51:05.764Z,11.12
2019-02-06T00:53:34.383Z,12.50
2019-02-06T00:56:04.400Z,9.70
2019-02-06T00:58:33.293Z,10.30
2019-02-06T01:01:02.156Z,9.08
2019-02-06T01:03:30.725Z,9.80
2019-02-06T01:05:59.322Z,11.03
2019-02-06T01:08:28.200Z,8.75
2019-02-06T01:10:56.807Z,11.03
2019-02-06T01:13:26.914Z,9.85
2019-02-06T01:15:55.516Z,8.25
2019-02-06T01:18:24.400Z,10.32
2019-02-06T01:20:52.998Z,9.88
2019-02-06T01:23:21.561Z,8.20
2019-02-06T01:25:50.493Z,9.38
2019-02-06T01:28:19.497Z,8.55
2019-02-06T01:30:50.009Z,8.83
2019-02-06T01:33:18.565Z,11.33
2019-02-06T01:35:50.034Z,8.98
2019-02-06T01:38:17.344Z,6.75
2019-02-06T01:40:45.894Z,8.73
2019-02-06T01:43:14.438Z,8.05
2019-02-06T01:45:43.214Z,7.00
2019-02-06T01:48:11.688Z,6.17
2019-02-06T01:50:40.270Z,8.48
2019-02-06T01:53:08.883Z,7.20
2019-02-06T01:55:37.475Z,7.80
2019-02-06T01:58:09.032Z,7.25
2019-02-06T02:00:38.520Z,8.63
2019-02-06T02:03:07.102Z,7.03
2019-02-06T02:05:37.861Z,8.65
2019-02-06T02:08:06.001Z,6.33
2019-02-06T02:10:34.960Z,8.33
2019-02-06T02:13:03.871Z,6.45
2019-02-06T02:15:32.417Z,7.40
2019-02-06T02:18:01.422Z,9.88
2019-02-06T02:20:30.331Z,8.50
2019-02-06T02:22:58.887Z,7.85
2019-02-06T02:25:27.739Z,8.50
2019-02-06T02:27:56.289Z,4.80
2019-02-06T02:30:39.439Z,6.75
2019-02-06T02:33:08.385Z,8.13
2019-02-06T02:35:36.900Z,5.78
2019-02-06T02:38:05.848Z,7.75
2019-02-06T02:40:34.433Z,5.83
2019-02-06T02:43:02.985Z,7.00
2019-02-06T02:45:31.667Z,6.92
2019-02-06T02:48:00.474Z,5.40
2019-02-06T02:50:29.036Z,6.60
2019-02-06T02:52:57.900Z,4.33
2019-02-06T02:55:26.800Z,4.62
2019-02-06T02:57:55.414Z,5.85
2019-02-06T03:00:39.919Z,6.00
2019-02-06T03:03:25.586Z,5.80
2019-02-06T03:05:54.116Z,6.78
2019-02-06T03:08:22.635Z,4.90
2019-02-06T03:10:51.221Z,5.62
2019-02-06T03:13:20.180Z,4.45
2019-02-06T03:15:48.793Z,4.50
2019-02-06T03:18:17.336Z,4.03
2019-02-06T03:20:45.849Z,5.15
2019-02-06T03:23:14.461Z,5.42
2019-02-06T03:25:43.714Z,5.00
2019-02-06T03:28:12.268Z,4.72
2019-02-06T03:30:40.813Z,4.20
2019-02-06T03:33:09.777Z,4.65
2019-02-06T03:35:38.269Z,4.33
2019-02-06T03:38:06.805Z,4.55
2019-02-06T03:40:35.710Z,5.45
2019-02-06T03:43:04.466Z,5.20
2019-02-06T03:45:33.300Z,6.08
2019-02-06T03:48:01.901Z,5.75
2019-02-06T03:50:30.414Z,5.92
2019-02-06T03:52:58.955Z,4.22
2019-02-06T03:55:27.802Z,5.72
2019-02-06T03:57:56.988Z,4.72
2019-02-06T04:00:27.623Z,6.75
2019-02-06T04:02:56.412Z,6.33
2019-02-06T04:05:25.280Z,4.55
2019-02-06T04:07:54.208Z,4.42
2019-02-06T04:10:22.831Z,4.67
2019-02-06T04:12:51.344Z,5.70
2019-02-06T04:15:39.553Z,4.83
2019-02-06T04:18:08.072Z,4.67
2019-02-06T04:20:36.621Z,3.50
2019-02-06T04:23:05.136Z,4.03
2019-02-06T04:25:34.147Z,5.70
2019-02-06T04:28:02.989Z,5.00
2019-02-06T04:30:32.087Z,5.40
2019-02-06T04:33:00.896Z,4.70
2019-02-06T04:35:29.451Z,4.72
2019-02-06T04:37:58.335Z,3.92
2019-02-06T04:40:26.873Z,2.95
2019-02-06T04:42:55.413Z,4.95
2019-02-06T04:45:23.987Z,6.05
2019-02-06T04:47:52.536Z,4.58
2019-02-06T04:50:21.345Z,5.33
2019-02-06T04:52:50.375Z,5.90
2019-02-06T04:55:19.460Z,6.00
2019-02-06T04:57:48.305Z,5.35
2019-02-06T05:00:21.198Z,4.33
2019-02-06T05:02:50.023Z,4.22
2019-02-06T05:05:18.562Z,4.08
2019-02-06T05:07:47.386Z,4.00
2019-02-06T05:10:15.965Z,3.25
2019-02-06T05:12:45.377Z,4.30
2019-02-06T05:15:14.970Z,4.25
2019-02-06T05:17:43.589Z,4.12
2019-02-06T05:20:19.700Z,3.92
2019-02-06T05:22:48.237Z,4.85
2019-02-06T05:25:17.084Z,4.72
2019-02-06T05:27:46.299Z,3.35
2019-02-06T05:30:15.371Z,4.65
2019-02-06T05:32:44.087Z,4.30
2019-02-06T05:35:12.781Z,5.55
2019-02-06T05:37:41.324Z,3.30
2019-02-06T05:40:11.836Z,2.90
2019-02-06T05:42:40.391Z,3.35
2019-02-06T05:45:09.904Z,4.47
2019-02-06T05:47:38.441Z,3.40
2019-02-06T05:50:08.507Z,6.00
2019-02-06T05:52:37.353Z,4.35
2019-02-06T05:55:07.541Z,4.75
2019-02-06T05:57:36.441Z,5.00
2019-02-06T06:00:09.684Z,5.37
2019-02-06T06:02:38.208Z,4.15
2019-02-06T06:05:07.536Z,3.52
2019-02-06T06:07:44.740Z,2.85
2019-02-06T06:10:10.446Z,4.03
2019-02-06T06:12:38.959Z,4.45
2019-02-06T06:15:08.593Z,4.80
2019-02-06T06:17:37.085Z,5.60
2019-02-06T06:20:07.461Z,3.95
2019-02-06T06:22:36.302Z,2.92
2019-02-06T06:25:06.163Z,3.20
2019-02-06T06:27:34.684Z,2.45
2019-02-06T06:30:04.804Z,3.50
2019-02-06T06:32:33.332Z,4.67
2019-02-06T06:35:01.947Z,3.40
2019-02-06T06:37:30.807Z,3.85
2019-02-06T06:39:59.391Z,1.30
2019-02-06T06:42:27.910Z,3.15
2019-02-06T06:44:56.777Z,2.80
2019-02-06T06:47:45.042Z,5.03
2019-02-06T06:50:16.757Z,4.70
2019-02-06T06:52:45.336Z,4.03
2019-02-06T06:55:14.739Z,5.35
2019-02-06T06:57:44.125Z,3.87
2019-02-06T07:00:14.207Z,4.62
2019-02-06T07:02:42.800Z,3.70
2019-02-06T07:05:14.222Z,3.55
2019-02-06T07:07:42.809Z,3.22
2019-02-06T07:10:14.133Z,4.60
2019-02-06T07:12:42.929Z,2.37
2019-02-06T07:15:17.930Z,4.10
2019-02-06T07:17:46.541Z,4.87
2019-02-06T07:20:17.649Z,3.70
2019-02-06T07:22:46.249Z,3.30
2019-02-06T07:25:16.324Z,3.12
2019-02-06T07:27:44.902Z,3.55
2019-02-06T07:30:19.705Z,5.37
2019-02-06T07:32:48.563Z,1.72
2019-02-06T07:35:17.181Z,2.50
2019-02-06T07:37:46.102Z,4.62
2019-02-06T07:40:15.510Z,2.45
2019-02-06T07:42:44.373Z,4.08
2019-02-06T07:45:14.017Z,3.75
2019-02-06T07:47:42.549Z,4.22
2019-02-06T07:50:12.763Z,2.08
2019-02-06T07:52:41.345Z,3.12
2019-02-06T07:55:09.937Z,1.80
2019-02-06T07:57:38.481Z,3.27
2019-02-06T08:00:08.115Z,3.58
2019-02-06T08:02:36.751Z,3.10
2019-02-06T08:05:11.522Z,2.87
2019-02-06T08:07:40.128Z,2.60
2019-02-06T08:10:10.214Z,4.62
2019-02-06T08:12:38.758Z,3.70
2019-02-06T08:15:08.805Z,3.77
2019-02-06T08:17:37.369Z,2.67
2019-02-06T08:20:07.441Z,3.55
2019-02-06T08:22:35.984Z,3.50
2019-02-06T08:25:06.441Z,4.45
2019-02-06T08:27:35.056Z,4.03
2019-02-06T08:30:06.712Z,4.05
2019-02-06T08:32:37.935Z,3.47
2019-02-06T08:35:07.006Z,4.10
2019-02-06T08:37:35.540Z,2.25
2019-02-06T08:40:05.814Z,3.20
2019-02-06T08:42:34.402Z,2.67
2019-02-06T08:45:02.987Z,4.00
2019-02-06T08:47:31.536Z,2.30
2019-02-06T08:50:00.096Z,3.50
2019-02-06T08:52:28.805Z,4.45
2019-02-06T08:54:57.672Z,3.62
2019-02-06T08:57:26.672Z,4.35
2019-02-06T08:59:55.213Z,4.03
2019-02-06T09:02:24.081Z,2.90
2019-02-06T09:04:56.030Z,1.80
2019-02-06T09:07:22.920Z,4.20
2019-02-06T09:09:51.891Z,3.75
2019-02-06T09:12:20.964Z,4.05
2019-02-06T09:14:49.893Z,3.52
2019-02-06T09:17:18.492Z,3.75
2019-02-06T09:19:47.047Z,3.22
2019-02-06T09:22:15.892Z,4.60
2019-02-06T09:24:44.445Z,3.17
2019-02-06T09:27:12.975Z,3.10
2019-02-06T09:29:41.503Z,3.90
2019-02-06T09:32:10.036Z,5.33
2019-02-06T09:34:38.565Z,5.08
2019-02-06T09:37:07.546Z,4.25
2019-02-06T09:39:36.493Z,4.22
2019-02-06T09:42:05.037Z,3.30
2019-02-06T09:44:33.877Z,3.95
2019-02-06T09:47:02.413Z,3.30
2019-02-06T09:49:31.281Z,4.47
2019-02-06T09:51:59.797Z,4.83
2019-02-06T09:54:28.692Z,4.58
2019-02-06T09:56:57.537Z,4.17
2019-02-06T09:59:26.402Z,4.50
2019-02-06T10:01:55.446Z,4.42
2019-02-06T10:04:24.441Z,3.90
2019-02-06T10:06:54.467Z,3.58
2019-02-06T10:09:23.318Z,2.85
2019-02-06T10:11:52.316Z,3.42
2019-02-06T10:14:21.375Z,4.83
2019-02-06T10:16:50.760Z,3.30
2019-02-06T10:19:19.879Z,4.15
2019-02-06T10:21:52.817Z,2.62
2019-02-06T10:24:19.123Z,3.47
2019-02-06T10:26:48.071Z,4.35
2019-02-06T10:29:16.979Z,3.60
2019-02-06T10:31:45.908Z,4.78
2019-02-06T10:34:14.428Z,4.12
2019-02-06T10:36:42.985Z,4.15
2019-02-06T10:39:11.989Z,3.10
2019-02-06T10:41:59.935Z,3.15
2019-02-06T10:44:28.785Z,2.60
2019-02-06T10:46:57.693Z,4.92
2019-02-06T10:49:26.234Z,4.35
2019-02-06T10:51:55.172Z,3.22
2019-02-06T10:54:23.708Z,2.87
2019-02-06T10:56:52.595Z,4.03
2019-02-06T10:59:21.517Z,2.87
2019-02-06T11:01:50.148Z,3.70
2019-02-06T11:04:19.097Z,3.45
2019-02-06T11:06:48.311Z,4.60
2019-02-06T11:09:17.289Z,4.22
2019-02-06T11:11:45.906Z,4.08
2019-02-06T11:14:14.448Z,3.50
2019-02-06T11:16:43.729Z,3.25
2019-02-06T11:19:12.582Z,4.45
2019-02-06T11:21:41.491Z,3.25
2019-02-06T11:24:10.013Z,4.45
2019-02-06T11:26:38.557Z,3.80
2019-02-06T11:29:07.629Z,3.85
2019-02-06T11:31:36.234Z,3.35
2019-02-06T11:34:04.972Z,3.20
2019-02-06T11:36:33.489Z,3.25
2019-02-06T11:39:02.041Z,3.37
2019-02-06T11:41:30.569Z,2.45
2019-02-06T11:43:59.445Z,3.27
2019-02-06T11:46:28.297Z,4.25
2019-02-06T11:48:57.481Z,3.40
2019-02-06T11:51:26.384Z,4.40
2019-02-06T11:53:55.340Z,3.22
2019-02-06T11:56:24.334Z,3.15
2019-02-06T11:58:53.345Z,3.08
2019-02-06T12:01:23.511Z,3.65
2019-02-06T12:03:52.859Z,4.08
2019-02-06T12:06:41.105Z,5.10
2019-02-06T12:09:29.402Z,3.62
2019-02-06T12:11:58.316Z,4.03
2019-02-06T12:14:27.385Z,4.67
2019-02-06T12:16:55.909Z,2.15
2019-02-06T12:19:24.475Z,3.52
2019-02-06T12:21:52.997Z,3.95
2019-02-06T12:24:21.532Z,3.00
2019-02-06T12:26:50.461Z,4.60
2019-02-06T12:29:19.322Z,3.77
2019-02-06T12:31:47.864Z,3.20
2019-02-06T12:34:16.928Z,3.50
2019-02-06T12:36:45.504Z,3.27
2019-02-06T12:39:14.418Z,4.03
2019-02-06T12:41:43.353Z,4.05
2019-02-06T12:44:11.918Z,3.55
2019-02-06T12:46:40.766Z,2.58
2019-02-06T12:49:09.312Z,4.22
2019-02-06T12:51:37.924Z,3.12
2019-02-06T12:54:06.914Z,3.75
2019-02-06T12:56:35.806Z,3.60
2019-02-06T12:59:04.850Z,2.70
2019-02-06T13:01:33.470Z,4.83
2019-02-06T13:04:02.539Z,3.70
2019-02-06T13:06:31.146Z,4.58
2019-02-06T13:09:00.081Z,3.45
2019-02-06T13:11:28.588Z,3.45
2019-02-06T13:13:57.531Z,3.27
2019-02-06T13:16:45.402Z,3.47
2019-02-06T13:19:13.926Z,5.28
2019-02-06T13:21:42.861Z,4.67
2019-02-06T13:24:30.718Z,3.02
2019-02-06T13:26:59.668Z,3.62
2019-02-06T13:29:28.173Z,4.03
2019-02-06T13:31:56.709Z,3.62
2019-02-06T13:34:25.248Z,3.85
2019-02-06T13:36:53.806Z,3.52
2019-02-06T13:39:41.675Z,4.10
2019-02-06T13:42:10.309Z,3.75
2019-02-06T13:44:41.508Z,4.37
2019-02-06T13:47:09.043Z,4.10
2019-02-06T13:49:37.967Z,6.17
2019-02-06T13:52:06.945Z,4.12
2019-02-06T13:54:35.452Z,2.98
2019-02-06T13:57:04.542Z,3.72
2019-02-06T13:59:33.104Z,4.10
2019-02-06T14:02:02.033Z,4.42
2019-02-06T14:04:30.577Z,5.55
2019-02-06T14:06:59.181Z,3.50
2019-02-06T14:09:27.785Z,6.25
2019-02-06T14:11:57.013Z,4.37
2019-02-06T14:14:27.144Z,4.72
2019-02-06T14:16:55.721Z,3.70
2019-02-06T14:19:24.298Z,3.50
2019-02-06T14:21:55.901Z,3.80
2019-02-06T14:24:30.662Z,4.45
2019-02-06T14:27:00.720Z,4.22
2019-02-06T14:29:38.828Z,3.80
2019-02-06T14:32:15.733Z,4.08
2019-02-06T14:34:45.913Z,4.40
2019-02-06T14:37:35.688Z,4.70
2019-02-06T14:40:14.921Z,3.35
2019-02-06T14:43:01.774Z,4.67
2019-02-06T14:45:43.815Z,4.67
2019-02-06T14:48:17.839Z,5.12
2019-02-06T14:51:03.034Z,4.83
2019-02-06T14:53:49.868Z,4.17
2019-02-06T14:56:22.900Z,4.60
2019-02-06T14:58:59.236Z,3.98
2019-02-06T15:01:39.914Z,3.60
2019-02-06T15:04:25.407Z,3.85
2019-02-06T15:07:01.770Z,5.08
2019-02-06T15:09:37.617Z,3.27
2019-02-06T15:12:24.542Z,3.37
2019-02-06T15:15:30.041Z,2.87
2019-02-06T15:18:05.264Z,5.72
2019-02-06T15:20:35.357Z,4.83
2019-02-06T15:23:05.436Z,4.55
2019-02-06T15:25:56.648Z,5.17
2019-02-06T15:28:43.412Z,5.25
2019-02-06T15:31:32.077Z,5.12
2019-02-06T15:34:38.046Z,2.95
2019-02-06T15:37:25.212Z,4.40
2019-02-06T15:39:59.926Z,4.50
2019-02-06T15:42:32.164Z,4.25
2019-02-06T15:45:15.952Z,3.65
2019-02-06T15:47:48.680Z,3.15
2019-02-06T15:50:26.642Z,3.05
2019-02-06T15:53:01.013Z,5.12
2019-02-06T15:55:46.484Z,5.28
2019-02-06T15:58:42.232Z,4.42
2019-02-06T16:01:33.044Z,3.20
2019-02-06T16:04:16.431Z,2.52
2019-02-06T16:07:02.951Z,3.72
2019-02-06T16:09:49.339Z,4.35
2019-02-06T16:12:25.582Z,3.20
2019-02-06T16:14:55.731Z,5.05
2019-02-06T16:17:37.998Z,3.50
2019-02-06T16:20:27.432Z,4.75
2019-02-06T16:22:57.532Z,4.65
2019-02-06T16:25:27.577Z,4.60
2019-02-06T16:28:15.489Z,3.45
2019-02-06T16:30:51.372Z,4.35
2019-02-06T16:33:39.666Z,3.85
2019-02-06T16:36:29.028Z,3.50
2019-02-06T16:39:08.377Z,4.12
2019-02-06T16:41:59.791Z,3.35
2019-02-06T16:44:30.224Z,2.92
2019-02-06T16:47:09.341Z,3.67
2019-02-06T16:49:56.545Z,3.70
2019-02-06T16:52:40.594Z,4.70
2019-02-06T16:55:35.629Z,4.75
2019-02-06T16:58:23.495Z,5.00
2019-02-06T17:01:04.389Z,5.67
2019-02-06T17:03:40.233Z,3.95
2019-02-06T17:06:14.872Z,3.85
2019-02-06T17:08:50.731Z,4.35
2019-02-06T17:11:38.613Z,3.40
2019-02-06T17:14:11.680Z,3.37
2019-02-06T17:16:44.953Z,3.80
2019-02-06T17:19:25.957Z,3.55
2019-02-06T17:22:00.761Z,2.92
2019-02-06T17:24:43.047Z,4.00
2019-02-06T17:27:13.141Z,3.83
2019-02-06T17:29:46.549Z,4.80
2019-02-06T17:32:33.702Z,3.37
2019-02-06T17:35:23.675Z,4.20
2019-02-06T17:38:04.301Z,4.80
2019-02-06T17:41:03.165Z,4.33
2019-02-06T17:43:33.681Z,2.77
2019-02-06T17:46:14.959Z,3.65
2019-02-06T17:48:50.987Z,3.25
2019-02-06T17:51:21.136Z,3.65
2019-02-06T17:53:51.188Z,4.08
2019-02-06T17:56:19.720Z,4.70
2019-02-06T17:58:48.682Z,4.03
2019-02-06T18:01:20.997Z,4.60
2019-02-06T18:03:50.497Z,3.47
2019-02-06T18:06:19.430Z,3.75
2019-02-06T18:08:56.475Z,3.62
2019-02-06T18:11:18.937Z,3.27
2019-02-06T18:13:47.778Z,5.30
2019-02-06T18:16:21.339Z,3.90
2019-02-06T18:18:46.735Z,4.95
2019-02-06T18:21:15.300Z,4.35
2019-02-06T18:23:44.314Z,3.22
2019-02-06T18:26:12.922Z,4.40
2019-02-06T18:28:41.889Z,3.98
2019-02-06T18:31:11.412Z,3.00
2019-02-06T18:33:40.026Z,2.80
2019-02-06T18:36:08.639Z,3.45
2019-02-06T18:38:46.322Z,3.00
2019-02-06T18:41:08.661Z,3.55
2019-02-06T18:43:37.329Z,4.35
2019-02-06T18:46:06.068Z,3.50
2019-02-06T18:48:34.944Z,4.22
2019-02-06T18:51:04.369Z,4.58
2019-02-06T18:53:33.361Z,3.27
2019-02-06T18:56:02.370Z,4.78
2019-02-06T18:58:30.973Z,3.90
2019-02-06T19:00:59.725Z,4.85
2019-02-06T19:03:29.805Z,3.80
2019-02-06T19:05:58.774Z,5.53
2019-02-06T19:08:27.727Z,3.90
2019-02-06T19:10:56.229Z,4.37
2019-02-06T19:13:24.874Z,3.90
2019-02-06T19:15:56.544Z,5.17
2019-02-06T19:18:23.710Z,4.40
2019-02-06T19:20:52.733Z,2.98
2019-02-06T19:23:21.621Z,3.98
2019-02-06T19:25:50.144Z,5.53
2019-02-06T19:28:19.389Z,5.20
2019-02-06T19:30:47.920Z,4.67
2019-02-06T19:33:17.276Z,3.33
2019-02-06T19:35:46.340Z,5.00
2019-02-06T19:38:14.896Z,4.55
2019-02-06T19:40:43.993Z,3.58
2019-02-06T19:43:12.890Z,6.20
2019-02-06T19:45:41.732Z,3.75
2019-02-06T19:48:16.193Z,4.55
2019-02-06T19:50:44.714Z,4.83
2019-02-06T19:53:13.355Z,4.15
2019-02-06T19:55:41.886Z,3.52
2019-02-06T19:58:10.833Z,5.00
2019-02-06T20:00:39.353Z,4.30
2019-02-06T20:03:08.776Z,4.12
2019-02-06T20:05:37.810Z,3.90
2019-02-06T20:08:07.711Z,4.67
2019-02-06T20:10:48.797Z,3.35
2019-02-06T20:13:17.782Z,5.10
2019-02-06T20:15:46.747Z,5.12
2019-02-06T20:18:16.079Z,4.33
2019-02-06T20:20:44.692Z,3.22
2019-02-06T20:23:13.235Z,4.45
2019-02-06T20:25:41.790Z,5.58
2019-02-06T20:28:11.331Z,3.25
2019-02-06T20:30:39.881Z,3.90
2019-02-06T20:33:08.809Z,4.25
2019-02-06T20:35:37.746Z,3.47
2019-02-06T20:38:06.667Z,4.40
2019-02-06T20:40:39.931Z,4.12
2019-02-06T20:43:08.790Z,3.80
2019-02-06T20:45:37.414Z,4.45
2019-02-06T20:48:06.403Z,3.98
2019-02-06T20:50:35.554Z,3.50
2019-02-06T20:53:04.852Z,4.22
2019-02-06T20:55:33.510Z,6.58
2019-02-06T20:58:02.094Z,4.83
2019-02-06T21:00:35.874Z,3.98
2019-02-06T21:03:04.659Z,4.05
2019-02-06T21:05:34.034Z,3.42
2019-02-06T21:08:03.161Z,3.47
2019-02-06T21:10:32.456Z,4.78
2019-02-06T21:13:01.361Z,3.22
2019-02-06T21:15:32.682Z,5.90
2019-02-06T21:18:00.139Z,3.55
2019-02-06T21:20:28.784Z,5.10
2019-02-06T21:22:58.013Z,4.15
2019-02-06T21:25:47.345Z,3.05
2019-02-06T21:28:16.062Z,3.67
2019-02-06T21:30:46.913Z,4.47
2019-02-06T21:35:54.849Z,3.75
2019-02-06T21:38:23.404Z,2.77
2019-02-06T21:40:52.065Z,4.12
2019-02-06T21:43:20.709Z,3.83
2019-02-06T21:45:49.337Z,3.50
2019-02-06T21:48:18.192Z,3.52
2019-02-06T21:50:46.801Z,2.90
2019-02-06T21:53:15.379Z,3.70
2019-02-06T21:55:43.979Z,3.60
2019-02-06T21:58:12.543Z,4.30
2019-02-06T22:00:42.004Z,3.58
2019-02-06T22:03:10.906Z,4.40
2019-02-06T22:05:40.344Z,3.72
2019-02-06T22:08:08.958Z,3.72
2019-02-06T22:10:37.522Z,4.83
2019-02-06T22:13:25.414Z,2.98
2019-02-06T22:15:54.548Z,4.83
2019-02-06T22:18:23.367Z,3.40
2019-02-06T22:20:51.884Z,3.27
2019-02-06T22:23:20.455Z,3.95
2019-02-06T22:25:49.117Z,3.87
2019-02-06T22:28:17.624Z,4.22
2019-02-06T22:30:46.816Z,4.37
2019-02-06T22:33:15.332Z,3.25
2019-02-06T22:35:43.910Z,3.10
2019-02-06T22:38:12.475Z,3.98
2019-02-06T22:40:41.144Z,3.77
2019-02-06T22:43:09.657Z,3.17
2019-02-06T22:45:38.208Z,3.67
2019-02-06T22:48:06.816Z,4.35
2019-02-06T22:50:35.350Z,2.42
2019-02-06T22:53:04.032Z,2.98
2019-02-06T22:55:32.585Z,3.87
2019-02-06T22:58:01.116Z,4.12
2019-02-06T23:00:33.737Z,3.00
2019-02-06T23:03:02.225Z,3.87
2019-02-06T23:05:30.804Z,3.85
2019-02-06T23:07:59.342Z,3.77
2019-02-06T23:10:27.962Z,3.67
2019-02-06T23:12:56.488Z,5.15
2019-02-06T23:15:25.101Z,3.67
2019-02-06T23:17:54.113Z,4.00
2019-02-06T23:20:22.761Z,3.00
2019-02-06T23:22:51.354Z,2.58
2019-02-06T23:25:20.250Z,4.50
2019-02-06T23:27:48.765Z,3.58
2019-02-06T23:30:17.487Z,3.40
2019-02-06T23:32:46.299Z,3.17
2019-02-06T23:35:15.309Z,4.87
2019-02-06T23:37:44.169Z,3.45
2019-02-06T23:40:15.885Z,2.85
2019-02-06T23:42:44.344Z,3.40
2019-02-06T23:45:13.437Z,3.60
2019-02-06T23:47:42.375Z,3.60
2019-02-06T23:50:15.707Z,3.00
2019-02-06T23:52:44.415Z,4.10
2019-02-06T23:55:13.101Z,2.85
2019-02-06T23:57:41.775Z,3.45
